KCGI/CGI METAR and TAF weather

Enter ICAO airport designator
Station Type Date Time Source
KCGI METAR 2021/05/15 01:53 UTC NOAA

KCGI 150153Z AUTO 12004KT 10SM CLR 13/07 A3022 RMK AO2 SLP233 T01280072


Station Type Date Time Source
KCGI Decoded METAR 2021/05/15 01:53 UTC NOAA

CAPE GIRARDEAU REGIONAL, MO, United States (KCGI) 37-14N 089-35W 102M
May 14, 2021 - 09:53 PM EDT / 2021.05.15 0153 UTC
Wind: from the ESE (120 degrees) at 5 MPH (4 KT):0
Visibility: 10 mile(s):0
Sky conditions: clear
Temperature: 55.0 F (12.8 C)
Dew Point: 45.0 F (7.2 C)
Relative Humidity: 68%
Pressure (altimeter): 30.22 in. Hg (1023 hPa)
ob: KCGI 150153Z AUTO 12004KT 10SM CLR 13/07 A3022 RMK AO2 SLP233 T01280072
cycle: 2

Station Type Date Time Source
KCGI TAF 2021/05/14 18:24 UTC NOAA

TAF KCGI 141723Z 1418/1518 VRB05KT P6SM FEW070 SCT200
FM150000 VRB02KT P6SM SCT200
FM151500 17009KT P6SM SCT090

Example: see airport list